Time;durP1;ratioP1;P1;durP2;ratioP2;P2;SDS_P1;SDS_P2;PMS_P1;PMS_P2;Temp;Humidity;BMP_temperature;BMP_pressure;BME280_temperature;BME280_humidity;BME280_pressure;Samples;Min_cycle;Max_cycle;Signal;HPM_P1;HPM_P2
2023/04/27 00:01:41;;;;;;;2.97;2.78;;;;;;;5.76;74.39;102148.03;5062550;28;20368;-77
2023/04/27 00:04:07;;;;;;;3.72;2.95;;;;;;;5.73;74.24;102151.50;5061068;28;20239;-77
2023/04/27 00:06:33;;;;;;;3.17;2.83;;;;;;;5.73;74.37;102153.22;5070587;28;20044;-77
2023/04/27 00:08:58;;;;;;;3.20;3.00;;;;;;;5.71;74.51;102153.22;5071816;28;20040;-77
2023/04/27 00:11:24;;;;;;;3.00;2.80;;;;;;;5.69;74.47;102141.94;5071666;28;20117;-77
2023/04/27 00:13:49;;;;;;;3.38;3.17;;;;;;;5.68;74.45;102142.81;5065427;28;20259;-76
2023/04/27 00:16:15;;;;;;;3.08;2.88;;;;;;;5.67;74.57;102143.69;5072869;28;20047;-76
2023/04/27 00:18:41;;;;;;;3.10;2.90;;;;;;;5.66;74.67;102138.50;5069353;28;20357;-76
2023/04/27 00:21:07;;;;;;;3.33;3.08;;;;;;;5.64;74.62;102145.41;5067715;28;20159;-76
2023/04/27 00:23:33;;;;;;;3.28;3.05;;;;;;;5.63;74.11;102146.28;5067317;28;20115;-76
2023/04/27 00:25:58;;;;;;;4.63;3.45;;;;;;;5.61;74.65;102145.44;5076681;28;20278;-76
2023/04/27 00:28:23;;;;;;;3.35;3.10;;;;;;;5.61;74.73;102142.81;5059533;28;20112;-76
2023/04/27 00:30:49;;;;;;;3.20;3.00;;;;;;;5.59;74.70;102140.22;5059441;28;20067;-77
2023/04/27 00:33:15;;;;;;;3.30;3.00;;;;;;;5.58;74.69;102136.75;5095812;28;20054;-76
2023/04/27 00:35:41;;;;;;;3.15;2.95;;;;;;;5.56;74.74;102133.28;5095158;28;20109;-77
2023/04/27 00:38:06;;;;;;;3.10;2.90;;;;;;;5.55;74.78;102139.34;5095591;28;20036;-76
2023/04/27 00:40:31;;;;;;;3.45;3.15;;;;;;;5.53;74.76;102130.69;5078422;28;20071;-76
2023/04/27 00:42:57;;;;;;;3.42;3.13;;;;;;;5.51;74.78;102128.94;5075444;28;20581;-76
2023/04/27 00:45:22;;;;;;;3.53;3.33;;;;;;;5.50;74.74;102127.22;5075465;28;20040;-76
2023/04/27 00:47:48;;;;;;;3.40;3.20;;;;;;;5.48;74.69;102123.75;5075464;28;20036;-77
2023/04/27 00:50:14;;;;;;;3.10;2.80;;;;;;;5.47;74.87;102120.28;5076599;28;20044;-77
2023/04/27 00:52:40;;;;;;;3.30;3.10;;;;;;;5.44;75.00;102122.88;5075969;28;20350;-77
2023/04/27 00:55:06;;;;;;;3.70;3.40;;;;;;;5.43;74.95;102122.88;5075663;28;20143;-77
2023/04/27 00:57:32;;;;;;;3.20;3.00;;;;;;;5.40;75.05;102113.34;5057273;28;20476;-77
2023/04/27 01:00:01;;;;;;;3.80;3.50;;;;;;;5.37;75.03;102122.00;5070957;28;20330;-77
2023/04/27 01:04:58;;;;;;;3.50;3.30;;;;;;;5.34;75.02;102124.59;5070439;28;20044;-76
2023/04/27 01:07:25;;;;;;;3.65;3.30;;;;;;;5.32;75.31;102125.47;5069595;28;20108;-76
2023/04/27 01:09:51;;;;;;;3.53;3.22;;;;;;;5.30;75.29;102133.25;5065289;28;20055;-77
2023/04/27 01:12:16;;;;;;;3.35;3.05;;;;;;;5.27;75.22;102125.44;5075776;28;20040;-77
2023/04/27 01:14:41;;;;;;;3.30;3.08;;;;;;;5.27;75.38;102116.78;5063104;28;20212;-76
2023/04/27 01:17:07;;;;;;;3.30;3.10;;;;;;;5.24;75.43;102119.38;5055970;28;20040;-77
2023/04/27 01:19:33;;;;;;;3.47;3.28;;;;;;;5.21;75.42;102117.66;5067100;28;20040;-77
2023/04/27 01:21:58;;;;;;;3.28;2.97;;;;;;;5.17;75.48;102106.38;5057141;28;20112;-77
2023/04/27 01:24:24;;;;;;;3.28;3.00;;;;;;;5.15;75.56;102105.50;5067452;28;20044;-77
2023/04/27 01:26:52;;;;;;;3.47;3.17;;;;;;;5.15;75.56;102105.50;5056720;28;20044;-77
2023/04/27 01:29:17;;;;;;;3.10;2.90;;;;;;;5.13;75.73;102102.06;5057870;28;20040;-76
2023/04/27 01:31:42;;;;;;;3.10;2.88;;;;;;;5.13;75.53;102099.47;5076518;28;20035;-77
2023/04/27 01:34:08;;;;;;;3.42;3.17;;;;;;;5.10;75.75;102101.19;5072172;28;20040;-76
2023/04/27 01:36:34;;;;;;;3.53;3.22;;;;;;;5.08;75.75;102101.16;5058392;28;20135;-76
2023/04/27 01:38:59;;;;;;;3.15;2.85;;;;;;;5.06;75.84;102092.50;5071542;28;20047;-76
2023/04/27 01:41:25;;;;;;;3.25;3.05;;;;;;;5.05;75.85;102101.16;5063791;28;20284;-76
2023/04/27 01:43:50;;;;;;;3.47;3.17;;;;;;;5.04;75.88;102103.75;5056759;28;20326;-76
2023/04/27 01:46:16;;;;;;;3.50;3.20;;;;;;;5.02;76.10;102098.56;5065336;28;20063;-76
2023/04/27 01:48:41;;;;;;;4.60;2.90;;;;;;;5.00;75.91;102095.97;5075187;28;20040;-76
2023/04/27 01:51:07;;;;;;;2.95;2.75;;;;;;;4.98;75.96;102096.81;5067135;28;20075;-77
2023/04/27 01:53:33;;;;;;;3.08;2.85;;;;;;;4.97;75.86;102093.34;5063419;28;20041;-77
2023/04/27 01:55:58;;;;;;;3.20;3.00;;;;;;;4.96;75.98;102101.13;5067435;28;20465;-77
2023/04/27 01:58:24;;;;;;;3.63;3.28;;;;;;;4.95;76.00;102097.69;5065337;28;20071;-76
2023/04/27 02:00:49;;;;;;;3.03;2.83;;;;;;;4.93;76.11;102102.00;5062707;28;20568;-76
2023/04/27 02:03:15;;;;;;;4.93;3.35;;;;;;;4.92;76.16;102096.81;5067860;28;20048;-76
2023/04/27 02:05:40;;;;;;;3.17;2.97;;;;;;;4.89;76.18;102091.59;5068809;28;20106;-76
2023/04/27 02:08:06;;;;;;;3.20;3.00;;;;;;;4.88;76.67;102093.31;5056360;28;20063;-77
2023/04/27 02:10:31;;;;;;;3.08;2.83;;;;;;;4.87;76.43;102083.78;5066443;28;20120;-76
2023/04/27 02:12:57;;;;;;;3.55;3.25;;;;;;;4.87;76.39;102085.53;5069450;28;20044;-76
2023/04/27 02:15:22;;;;;;;3.00;2.75;;;;;;;4.86;76.35;102083.78;5059388;28;20033;-77
2023/04/27 02:17:48;;;;;;;3.30;3.00;;;;;;;4.86;76.35;102082.06;5064863;28;20056;-76
2023/04/27 02:20:13;;;;;;;3.17;2.63;;;;;;;4.86;76.42;102082.06;5058961;28;20351;-76
2023/04/27 02:22:43;;;;;;;3.13;2.92;;;;;;;4.85;76.44;102079.47;5074037;28;20056;-76
2023/04/27 02:25:10;;;;;;;2.65;2.45;;;;;;;4.84;76.51;102072.53;5062246;28;20094;-77
2023/04/27 02:27:36;;;;;;;2.88;2.60;;;;;;;4.84;76.60;102080.31;5059809;28;20037;-76
2023/04/27 02:30:07;;;;;;;3.30;3.00;;;;;;;4.83;76.63;102079.47;5075246;28;20074;-77
2023/04/27 02:32:33;;;;;;;3.00;2.80;;;;;;;4.83;76.75;102079.47;5081019;28;20044;-77
2023/04/27 02:34:58;;;;;;;2.90;2.70;;;;;;;4.82;76.66;102075.16;5057260;28;20045;-77
2023/04/27 02:37:24;;;;;;;2.67;2.45;;;;;;;4.81;76.79;102074.25;5069958;28;20066;-76
2023/04/27 02:39:49;;;;;;;2.60;2.40;;;;;;;4.80;76.83;102069.94;5057772;28;20041;-77
2023/04/27 02:42:15;;;;;;;6.00;2.78;;;;;;;4.81;76.92;102074.25;5068137;28;20044;-76
2023/04/27 02:44:41;;;;;;;2.65;2.45;;;;;;;4.80;76.92;102072.53;5062361;28;20043;-76
2023/04/27 02:47:06;;;;;;;2.28;2.08;;;;;;;4.79;77.11;102073.41;5063731;28;20049;-76
2023/04/27 02:49:32;;;;;;;2.67;2.53;;;;;;;4.78;77.02;102078.56;5057762;28;20055;-76
2023/04/27 02:51:57;;;;;;;3.40;2.70;;;;;;;4.77;76.99;102082.91;5067065;28;20044;-75
2023/04/27 02:54:22;;;;;;;2.67;2.47;;;;;;;4.76;77.14;102078.56;5062245;28;20051;-76
2023/04/27 02:56:48;;;;;;;3.63;2.42;;;;;;;4.76;77.17;102080.31;5061743;28;20063;-76
2023/04/27 02:59:13;;;;;;;4.95;2.47;;;;;;;4.75;77.31;102079.44;5063223;28;20051;-76
2023/04/27 03:01:38;;;;;;;2.78;2.58;;;;;;;4.76;77.39;102081.16;5070063;28;20052;-77
2023/04/27 03:04:04;;;;;;;2.45;2.25;;;;;;;4.75;77.56;102081.19;5061996;28;20494;-77
2023/04/27 03:06:29;;;;;;;2.60;2.40;;;;;;;4.76;77.63;102088.09;5064583;28;20037;-77
2023/04/27 03:08:54;;;;;;;2.78;2.58;;;;;;;4.75;77.86;102089.84;5068586;28;20104;-77
2023/04/27 03:11:20;;;;;;;3.15;2.85;;;;;;;4.74;78.13;102082.88;5061664;28;20405;-76
2023/04/27 03:13:45;;;;;;;3.95;3.28;;;;;;;4.73;78.21;102077.69;5063113;28;20037;-77
2023/04/27 03:16:11;;;;;;;5.45;3.40;;;;;;;4.72;78.41;102082.03;5066243;28;20051;-76
2023/04/27 03:18:37;;;;;;;3.08;2.78;;;;;;;4.71;78.50;102079.41;5057673;28;20021;-76
2023/04/27 03:21:10;;;;;;;3.55;3.30;;;;;;;4.71;78.67;102084.59;5066240;28;20032;-77
2023/04/27 03:23:35;;;;;;;2.90;2.70;;;;;;;4.71;78.79;102082.91;5064060;28;20151;-76
2023/04/27 03:26:08;;;;;;;2.90;2.70;;;;;;;4.71;78.70;102088.09;5067959;28;20327;-76
2023/04/27 03:28:34;;;;;;;3.50;2.78;;;;;;;4.70;78.88;102088.94;5058425;28;20310;-76
2023/04/27 03:31:04;;;;;;;3.58;3.28;;;;;;;4.71;78.79;102084.59;5079604;28;20041;-76
2023/04/27 03:33:29;;;;;;;6.13;3.38;;;;;;;4.71;78.98;102088.09;5079468;28;20498;-76
2023/04/27 03:35:56;;;;;;;3.53;2.95;;;;;;;4.70;79.10;102088.94;5079619;28;20064;-76
2023/04/27 03:38:22;;;;;;;3.90;3.47;;;;;;;4.70;79.04;102093.28;5079778;28;20024;-76
2023/04/27 03:40:47;;;;;;;3.40;3.20;;;;;;;4.69;79.08;102092.38;5079474;28;20051;-77
2023/04/27 03:43:12;;;;;;;3.17;2.97;;;;;;;4.69;79.23;102088.94;5078473;28;20032;-77
2023/04/27 03:45:38;;;;;;;3.22;3.03;;;;;;;4.68;79.18;102092.41;5079198;28;20045;-77
2023/04/27 03:48:04;;;;;;;3.08;2.78;;;;;;;4.67;79.26;102090.66;5079473;28;20070;-77
2023/04/27 03:50:29;;;;;;;2.80;2.60;;;;;;;4.67;79.27;102093.25;5079403;28;20075;-76
2023/04/27 03:52:54;;;;;;;3.33;3.03;;;;;;;4.65;79.33;102093.25;5079205;28;20283;-77
2023/04/27 03:55:20;;;;;;;3.20;2.90;;;;;;;4.64;79.21;102098.41;5079213;28;20044;-77
2023/04/27 03:57:45;;;;;;;2.85;2.65;;;;;;;4.63;79.34;102099.28;5076304;28;20071;-76
2023/04/27 04:00:11;;;;;;;3.20;3.00;;;;;;;4.63;79.38;102099.28;5062252;28;20419;-76
2023/04/27 04:02:38;;;;;;;2.88;2.65;;;;;;;4.60;79.37;102101.03;5065139;28;20037;-76
2023/04/27 04:05:03;;;;;;;3.30;3.00;;;;;;;4.58;79.44;102110.53;5061276;28;20384;-76
2023/04/27 04:07:28;;;;;;;2.60;2.40;;;;;;;4.56;79.29;102106.19;5061005;28;20060;-76
2023/04/27 04:09:54;;;;;;;2.70;2.50;;;;;;;4.55;79.02;102107.91;5066573;28;20040;-76
2023/04/27 04:12:19;;;;;;;2.78;2.58;;;;;;;4.52;79.18;102109.63;5068319;28;20036;-76
2023/04/27 04:14:47;;;;;;;2.22;2.13;;;;;;;4.51;79.22;102110.47;5062898;28;20059;-76
2023/04/27 04:17:13;;;;;;;2.53;2.33;;;;;;;4.50;79.26;102108.75;5065623;28;20047;-76
2023/04/27 04:19:38;;;;;;;2.67;2.47;;;;;;;4.47;79.16;102106.13;5064086;28;20029;-76
2023/04/27 04:22:04;;;;;;;2.58;2.38;;;;;;;4.45;79.16;102106.13;5062639;28;20036;-76
2023/04/27 04:24:30;;;;;;;2.45;2.25;;;;;;;4.43;78.94;102113.91;5065613;28;20090;-76
2023/04/27 04:26:55;;;;;;;2.50;2.30;;;;;;;4.43;79.02;102110.44;5067517;28;20250;-76
2023/04/27 04:29:21;;;;;;;2.45;2.25;;;;;;;4.42;79.01;102113.88;5059925;28;20044;-76
2023/04/27 04:31:46;;;;;;;2.45;2.25;;;;;;;4.40;78.94;102113.00;5068570;28;20403;-76
2023/04/27 04:34:13;;;;;;;7.18;2.78;;;;;;;4.39;78.89;102111.28;5063704;28;20040;-76
2023/04/27 04:36:39;;;;;;;2.28;2.17;;;;;;;4.37;78.89;102119.06;5054790;28;20063;-76
2023/04/27 04:39:05;;;;;;;3.13;2.67;;;;;;;4.37;79.01;102116.47;5069510;28;20041;-77
2023/04/27 04:41:31;;;;;;;2.38;2.20;;;;;;;4.37;79.02;102118.19;5058631;28;20043;-77
2023/04/27 04:43:57;;;;;;;3.40;2.90;;;;;;;4.36;79.16;102117.31;5061435;28;20028;-76
2023/04/27 04:46:23;;;;;;;3.40;3.10;;;;;;;4.37;79.26;102120.78;5060585;28;20037;-76
2023/04/27 04:48:49;;;;;;;3.17;2.88;;;;;;;4.36;79.22;102127.69;5063092;28;20076;-76
2023/04/27 04:51:15;;;;;;;3.53;2.90;;;;;;;4.36;79.35;102127.69;5065345;28;20050;-76
2023/04/27 04:53:41;;;;;;;4.32;3.42;;;;;;;4.37;79.48;102125.97;5064225;28;20060;-76
2023/04/27 04:56:11;;;;;;;3.53;3.22;;;;;;;4.37;79.65;102124.25;5063362;28;20036;-77
2023/04/27 04:58:36;;;;;;;3.40;3.10;;;;;;;4.39;79.86;102126.84;5064190;28;20042;-77
2023/04/27 05:01:02;;;;;;;3.78;3.47;;;;;;;4.40;80.03;102129.47;5066000;28;20068;-76
2023/04/27 05:03:27;;;;;;;5.30;4.03;;;;;;;4.41;80.09;102131.19;5063331;28;20047;-76
2023/04/27 05:05:53;;;;;;;4.30;3.90;;;;;;;4.42;80.30;102127.75;5056996;28;20094;-76
2023/04/27 05:08:18;;;;;;;4.90;4.50;;;;;;;4.43;80.54;102132.06;5063377;28;20286;-76
2023/04/27 05:10:50;;;;;;;4.30;3.85;;;;;;;4.43;80.68;102136.38;5068135;28;20052;-76
2023/04/27 05:13:16;;;;;;;6.50;4.55;;;;;;;4.45;80.73;102133.81;5060943;28;20061;-76
2023/04/27 05:15:41;;;;;;;6.57;4.40;;;;;;;4.46;80.70;102136.41;5067989;28;20036;-76
2023/04/27 05:18:07;;;;;;;5.25;4.32;;;;;;;4.47;80.84;102139.84;5060591;28;20040;-76
2023/04/27 05:20:37;;;;;;;7.15;4.55;;;;;;;4.48;80.96;102136.41;5061643;28;20036;-77
2023/04/27 05:23:03;;;;;;;4.95;4.38;;;;;;;4.48;81.03;102139.00;5068806;28;20041;-76
2023/04/27 05:25:32;;;;;;;4.22;3.75;;;;;;;4.50;80.98;102142.47;5065859;28;20402;-76
2023/04/27 05:27:58;;;;;;;4.72;3.88;;;;;;;4.50;81.06;102142.47;5075728;28;20055;-76
2023/04/27 05:30:24;;;;;;;4.20;3.80;;;;;;;4.50;80.96;102143.34;5075857;28;20060;-76
2023/04/27 05:32:49;;;;;;;4.68;4.05;;;;;;;4.52;81.28;102145.94;5074304;28;20054;-76
2023/04/27 05:35:15;;;;;;;4.32;3.80;;;;;;;4.51;81.31;102142.50;5075662;28;20060;-76
2023/04/27 05:37:40;;;;;;;3.85;3.53;;;;;;;4.53;81.46;102145.06;5075771;28;20040;-76
2023/04/27 05:40:08;;;;;;;3.90;3.60;;;;;;;4.54;81.55;102152.00;5075870;28;20092;-77
2023/04/27 05:42:34;;;;;;;4.97;4.57;;;;;;;4.55;81.70;102143.38;5075392;28;20043;-76
2023/04/27 05:44:59;;;;;;;4.57;4.18;;;;;;;4.56;81.91;102142.50;5075638;28;20028;-76
2023/04/27 05:47:24;;;;;;;4.80;4.40;;;;;;;4.56;82.01;102145.94;5074701;28;20280;-76
2023/04/27 05:49:51;;;;;;;4.40;4.00;;;;;;;4.57;82.17;102146.84;5075082;28;20036;-76
2023/04/27 05:52:17;;;;;;;4.32;3.95;;;;;;;4.58;82.26;102149.44;5075300;28;20063;-76
2023/04/27 05:54:46;;;;;;;4.38;3.97;;;;;;;4.60;82.34;102152.03;5070105;28;20153;-76
2023/04/27 05:57:11;;;;;;;5.30;4.80;;;;;;;4.63;82.45;102151.19;5056701;28;20043;-76
2023/04/27 05:59:36;;;;;;;4.13;3.80;;;;;;;4.64;82.57;102151.22;5064330;28;20303;-76
2023/04/27 06:02:02;;;;;;;5.18;4.70;;;;;;;4.66;82.73;102157.28;5062373;28;20374;-76
2023/04/27 06:04:28;;;;;;;5.93;5.20;;;;;;;4.68;82.89;102159.88;5068375;28;20040;-76
2023/04/27 06:06:54;;;;;;;5.20;4.70;;;;;;;4.69;83.00;102159.84;5061261;28;20063;-77
2023/04/27 06:09:20;;;;;;;4.78;4.38;;;;;;;4.72;83.28;102164.22;5069283;28;20112;-76
2023/04/27 06:11:46;;;;;;;8.50;5.68;;;;;;;4.74;83.65;102159.91;5057845;28;20036;-76
2023/04/27 06:14:12;;;;;;;6.05;4.78;;;;;;;4.75;83.95;102165.09;5068782;28;20394;-76
2023/04/27 06:16:39;;;;;;;5.30;4.57;;;;;;;4.78;84.11;102161.63;5073742;28;20306;-76
2023/04/27 06:19:05;;;;;;;6.00;5.20;;;;;;;4.78;84.36;102165.13;5074538;28;20037;-76
2023/04/27 06:21:34;;;;;;;9.18;5.10;;;;;;;4.81;84.47;102153.88;5074861;28;20233;-77
2023/04/27 06:24:00;;;;;;;4.93;4.38;;;;;;;4.84;84.78;102147.81;5071865;28;20036;-77
2023/04/27 06:26:26;;;;;;;7.95;5.00;;;;;;;4.86;84.90;102154.75;5074226;28;20036;-76
2023/04/27 06:28:51;;;;;;;4.95;4.45;;;;;;;4.88;84.92;102142.66;5075989;28;20040;-76
2023/04/27 06:31:17;;;;;;;6.80;4.97;;;;;;;4.89;84.96;102149.56;5078652;28;20047;-76
2023/04/27 06:33:42;;;;;;;7.28;4.50;;;;;;;4.92;85.04;102141.78;5079611;28;20070;-76
2023/04/27 06:36:07;;;;;;;10.82;4.43;;;;;;;4.95;85.19;102141.81;5073665;28;20267;-76
2023/04/27 06:38:33;;;;;;;6.18;4.07;;;;;;;4.97;85.40;102137.50;5074243;28;20044;-76
2023/04/27 06:40:58;;;;;;;5.15;4.57;;;;;;;5.02;85.33;102141.81;5084340;28;20371;-76
2023/04/27 06:43:24;;;;;;;7.22;4.72;;;;;;;5.03;85.49;102134.03;5074051;28;20301;-77
2023/04/27 06:45:49;;;;;;;5.22;4.72;;;;;;;5.06;85.71;102140.97;5068391;28;20036;-76
2023/04/27 06:48:15;;;;;;;7.10;4.60;;;;;;;5.08;85.53;102145.31;5075063;28;20441;-76
2023/04/27 06:50:41;;;;;;;6.45;4.72;;;;;;;5.11;85.39;102153.13;5072380;28;20071;-76
2023/04/27 06:53:07;;;;;;;4.72;4.32;;;;;;;5.14;85.35;102153.13;5091204;28;20047;-76
2023/04/27 06:55:33;;;;;;;5.82;3.90;;;;;;;5.18;85.08;102154.88;5059472;28;20032;-76
2023/04/27 06:57:58;;;;;;;5.93;4.15;;;;;;;5.21;84.76;102147.97;5071750;28;20050;-76
2023/04/27 07:00:24;;;;;;;6.35;3.78;;;;;;;5.23;83.86;102154.88;5075357;28;20261;-76
2023/04/27 07:02:50;;;;;;;4.63;3.63;;;;;;;5.26;83.17;102144.50;5069534;28;20048;-76
2023/04/27 07:05:15;;;;;;;4.60;3.90;;;;;;;5.29;83.17;102149.69;5063636;28;20365;-76
2023/04/27 07:07:41;;;;;;;7.18;3.78;;;;;;;5.33;82.20;102146.25;5069960;28;20052;-76
2023/04/27 07:10:07;;;;;;;5.88;3.30;;;;;;;5.36;81.28;102153.16;5071886;28;20108;-76
2023/04/27 07:12:32;;;;;;;6.60;3.25;;;;;;;5.41;80.36;102145.41;5065674;28;20067;-76
2023/04/27 07:14:58;;;;;;;4.30;3.15;;;;;;;5.43;80.33;102148.88;5068041;28;20047;-76
2023/04/27 07:17:23;;;;;;;4.88;3.83;;;;;;;5.47;79.78;102137.59;5070491;28;20062;-76
2023/04/27 07:19:48;;;;;;;6.28;3.78;;;;;;;5.52;79.45;102149.72;5067496;28;20347;-76
2023/04/27 07:22:14;;;;;;;6.18;3.60;;;;;;;5.56;79.58;102141.06;5072202;28;20323;-76
2023/04/27 07:24:40;;;;;;;4.00;3.38;;;;;;;5.63;79.63;102138.50;5069300;28;20060;-76
2023/04/27 07:27:07;;;;;;;6.82;3.22;;;;;;;5.69;79.51;102143.69;5078600;28;20382;-76
2023/04/27 07:29:32;;;;;;;3.20;2.90;;;;;;;5.74;78.89;102147.16;5073172;28;20059;-76
2023/04/27 07:31:58;;;;;;;5.72;2.67;;;;;;;5.80;78.83;102149.75;5071392;28;20063;-76
2023/04/27 07:34:23;;;;;;;3.40;2.95;;;;;;;5.86;79.02;102151.50;5071821;28;20255;-76
2023/04/27 07:36:48;;;;;;;6.15;3.20;;;;;;;5.90;78.66;102151.50;5072634;28;20037;-76
2023/04/27 07:39:14;;;;;;;5.47;3.45;;;;;;;5.95;78.11;102144.59;5073967;28;20040;-76
2023/04/27 07:41:39;;;;;;;4.20;3.15;;;;;;;6.01;77.60;102142.84;5074990;28;20313;-76
2023/04/27 07:44:05;;;;;;;5.70;3.55;;;;;;;6.07;78.33;102153.25;5072222;28;20040;-76
2023/04/27 07:46:30;;;;;;;4.07;3.03;;;;;;;6.12;77.68;102148.91;5074168;28;20042;-76
2023/04/27 07:48:58;;;;;;;4.85;3.35;;;;;;;6.17;77.09;102143.69;5071953;28;20037;-76
2023/04/27 07:51:24;;;;;;;7.60;3.70;;;;;;;6.23;77.17;102143.69;5075000;28;20258;-76
2023/04/27 07:53:50;;;;;;;4.30;3.05;;;;;;;6.29;77.24;102133.25;5071011;28;20036;-76
2023/04/27 07:56:15;;;;;;;3.40;3.10;;;;;;;6.34;76.86;102141.94;5072516;28;20044;-76
2023/04/27 07:58:42;;;;;;;5.00;3.13;;;;;;;6.37;75.68;102147.13;5070679;28;20090;-77
2023/04/27 08:01:07;;;;;;;3.22;2.67;;;;;;;6.41;76.21;102137.59;5076625;28;20089;-77
2023/04/27 08:03:33;;;;;;;3.38;2.65;;;;;;;6.47;76.12;102137.56;5068129;28;20044;-77
2023/04/27 08:05:58;;;;;;;4.60;3.25;;;;;;;6.52;76.54;102135.81;5077541;28;20285;-76
2023/04/27 08:08:24;;;;;;;5.32;3.13;;;;;;;6.57;76.51;102131.47;5091321;28;20058;-76
2023/04/27 08:10:49;;;;;;;6.75;2.78;;;;;;;6.62;75.56;102128.84;5074802;28;20036;-76
2023/04/27 08:13:15;;;;;;;6.85;2.95;;;;;;;6.67;75.57;102124.47;5082024;28;20036;-76
2023/04/27 08:15:40;;;;;;;4.80;2.53;;;;;;;6.71;74.79;102123.59;5075116;28;20118;-76
2023/04/27 08:18:05;;;;;;;5.80;3.10;;;;;;;6.77;75.14;102131.38;5074938;28;20399;-76
2023/04/27 08:20:31;;;;;;;4.60;2.80;;;;;;;6.81;74.94;102125.28;5072244;28;20221;-77
2023/04/27 08:22:56;;;;;;;3.00;2.65;;;;;;;6.88;74.74;102126.13;5073864;28;20224;-76
2023/04/27 08:25:22;;;;;;;5.15;2.72;;;;;;;6.93;74.33;102129.59;5072253;28;20051;-76
2023/04/27 08:27:47;;;;;;;5.63;2.80;;;;;;;6.99;73.64;102131.28;5073167;28;20044;-76
2023/04/27 08:30:13;;;;;;;5.63;2.78;;;;;;;7.06;74.12;102130.41;5076515;28;20040;-76
2023/04/27 08:32:38;;;;;;;6.80;2.80;;;;;;;7.10;73.07;102127.75;5070754;28;20056;-77
2023/04/27 08:35:04;;;;;;;4.15;2.25;;;;;;;7.17;72.58;102132.91;5073675;28;20028;-77
2023/04/27 08:37:30;;;;;;;2.45;2.25;;;;;;;7.23;72.55;102138.09;5074100;28;20032;-77
2023/04/27 08:39:56;;;;;;;3.95;2.40;;;;;;;7.27;72.63;102127.63;5070730;28;20037;-76
2023/04/27 08:42:21;;;;;;;6.82;2.65;;;;;;;7.33;72.75;102136.28;5070028;28;20046;-76
2023/04/27 08:44:47;;;;;;;4.07;2.30;;;;;;;7.37;71.20;102128.47;5069918;28;20383;-76
2023/04/27 08:47:12;;;;;;;4.82;2.50;;;;;;;7.41;70.27;102126.69;5070931;28;20052;-76
2023/04/27 08:49:40;;;;;;;9.93;2.72;;;;;;;7.44;69.29;102122.34;5074576;28;20032;-77
2023/04/27 08:52:15;;;;;;;3.20;2.72;;;;;;;7.53;68.59;102128.34;5072494;28;20044;-77
2023/04/27 08:54:40;;;;;;;5.18;2.58;;;;;;;7.59;68.83;102128.31;5063426;28;20327;-77
2023/04/27 08:57:10;;;;;;;3.17;2.42;;;;;;;7.67;69.46;102124.75;5063424;28;20082;-76
2023/04/27 08:59:35;;;;;;;8.73;2.83;;;;;;;7.74;69.05;102122.09;5064561;28;20091;-76
2023/04/27 09:02:02;;;;;;;4.75;2.78;;;;;;;7.80;69.10;102119.44;5068610;28;20048;-76
2023/04/27 09:04:39;;;;;;;5.68;2.72;;;;;;;7.86;68.21;102122.00;5068869;28;20102;-76
2023/04/27 09:07:12;;;;;;;8.38;3.08;;;;;;;7.92;69.47;102116.72;5062343;28;20036;-76
2023/04/27 09:09:38;;;;;;;4.22;2.80;;;;;;;7.97;69.21;102114.94;5068239;28;20044;-76
2023/04/27 09:12:13;;;;;;;7.55;3.10;;;;;;;7.99;67.80;102112.31;5067101;28;20374;-76
2023/04/27 09:14:40;;;;;;;3.92;2.85;;;;;;;8.04;68.05;102120.94;5070582;28;20323;-76
2023/04/27 09:17:05;;;;;;;4.75;2.45;;;;;;;8.09;68.99;102113.94;5068646;28;20129;-76
2023/04/27 09:19:31;;;;;;;6.57;2.72;;;;;;;8.13;67.46;102118.28;5073319;28;20431;-76
2023/04/27 09:22:03;;;;;;;3.25;2.80;;;;;;;8.18;68.59;102116.44;5072475;28;20040;-76
2023/04/27 09:24:28;;;;;;;2.95;2.47;;;;;;;8.24;65.82;102111.19;5071873;28;20095;-76
2023/04/27 09:26:54;;;;;;;6.97;3.25;;;;;;;8.34;64.70;102104.13;5068518;28;20599;-76
2023/04/27 09:29:20;;;;;;;3.88;2.88;;;;;;;8.44;64.56;102107.50;5071705;28;20251;-76
2023/04/27 09:31:45;;;;;;;4.57;2.75;;;;;;;8.51;63.88;102114.38;5071770;28;20032;-76
2023/04/27 09:34:11;;;;;;;7.57;2.78;;;;;;;8.53;64.25;102119.59;5073382;28;20032;-76
2023/04/27 09:36:36;;;;;;;4.72;3.20;;;;;;;8.58;65.50;102128.25;5071114;28;20182;-76
2023/04/27 09:39:05;;;;;;;4.78;3.00;;;;;;;8.59;65.09;102115.19;5072952;28;20196;-76
2023/04/27 09:41:34;;;;;;;5.25;3.60;;;;;;;8.63;64.02;102121.22;5074057;28;20099;-76
2023/04/27 09:44:00;;;;;;;5.35;3.45;;;;;;;8.67;64.27;102124.66;5064759;28;20040;-76
2023/04/27 09:46:28;;;;;;;5.28;3.33;;;;;;;8.70;65.42;102122.88;5061473;28;20036;-76
2023/04/27 09:48:55;;;;;;;6.25;3.53;;;;;;;8.74;64.90;102123.72;5070224;28;20037;-76
2023/04/27 09:51:20;;;;;;;3.80;3.30;;;;;;;8.80;65.17;102124.50;5069824;28;20073;-76
2023/04/27 09:53:59;;;;;;;5.57;3.53;;;;;;;8.87;65.00;102114.81;5065604;28;20053;-76
2023/04/27 09:56:43;;;;;;;4.30;3.90;;;;;;;8.94;64.98;102111.25;5067640;28;20107;-76
2023/04/27 09:59:30;;;;;;;6.53;3.85;;;;;;;9.02;64.26;102117.25;5068770;28;20066;-76
2023/04/27 10:01:59;;;;;;;4.75;3.10;;;;;;;9.11;62.06;102112.75;5073654;28;20069;-76
2023/04/27 10:04:40;;;;;;;;;;;;;;;9.16;62.43;102121.41;5069340;28;20103;-76
2023/04/27 10:07:13;;;;;;;6.35;3.22;;;;;;;9.22;61.63;102116.97;5066113;28;19916;-76
2023/04/27 10:09:41;;;;;;;8.23;4.18;;;;;;;9.26;61.24;102112.56;5067831;28;20053;-76
2023/04/27 10:12:26;;;;;;;4.03;3.00;;;;;;;9.34;59.33;102105.44;5069514;28;20040;-76
2023/04/27 10:14:53;;;;;;;9.32;3.58;;;;;;;9.41;60.99;102107.06;5067104;28;20045;-76
2023/04/27 10:17:32;;;;;;;4.00;3.40;;;;;;;9.49;60.83;102108.72;5063646;28;20395;-76
2023/04/27 10:19:59;;;;;;;6.10;3.50;;;;;;;9.52;62.21;102101.69;5065784;28;20075;-76
2023/04/27 10:22:41;;;;;;;8.75;4.00;;;;;;;9.60;61.38;102106.78;5064509;28;20059;-76
2023/04/27 10:25:26;;;;;;;6.78;3.58;;;;;;;9.67;61.79;102102.31;5064943;28;20387;-76
2023/04/27 10:27:54;;;;;;;5.03;3.55;;;;;;;9.72;60.14;102103.09;5060304;28;20064;-76
2023/04/27 10:30:21;;;;;;;;;;;;;;;9.74;60.13;102104.81;5056474;28;20032;-76
2023/04/27 10:32:51;;;;;;;4.93;3.50;;;;;;;9.78;61.29;102103.00;5074587;28;19920;-76
2023/04/27 10:35:19;;;;;;;4.90;3.22;;;;;;;9.83;58.71;102102.94;5071381;28;20048;-76
2023/04/27 10:37:46;;;;;;;7.63;4.70;;;;;;;9.88;58.04;102098.47;5066682;28;20285;-76
2023/04/27 10:40:16;;;;;;;7.30;3.85;;;;;;;9.93;56.64;102091.38;5066893;28;20244;-76
2023/04/27 10:42:44;;;;;;;6.50;3.55;;;;;;;10.00;56.85;102090.38;5066491;28;20036;-76
2023/04/27 10:45:12;;;;;;;7.10;3.78;;;;;;;10.06;56.09;102081.56;5068971;28;20092;-76
2023/04/27 10:47:43;;;;;;;9.13;4.22;;;;;;;10.12;56.74;102087.56;5074341;28;20036;-76
2023/04/27 10:50:10;;;;;;;5.22;3.55;;;;;;;10.17;56.14;102087.47;5077749;28;20323;-76
2023/04/27 10:52:41;;;;;;;4.13;3.50;;;;;;;10.22;55.66;102084.75;5076830;28;20036;-76
2023/04/27 10:55:17;;;;;;;4.68;3.42;;;;;;;10.27;56.62;102083.78;5078397;28;20119;-76
2023/04/27 10:57:51;;;;;;;3.97;3.63;;;;;;;10.32;57.86;102081.09;5072871;28;20350;-76
2023/04/27 11:00:28;;;;;;;5.50;3.70;;;;;;;10.38;57.13;102075.75;5070913;28;20044;-76
2023/04/27 11:02:55;;;;;;;4.55;3.45;;;;;;;10.43;55.55;102073.91;5072368;28;20559;-76
2023/04/27 11:05:29;;;;;;;4.05;3.38;;;;;;;10.48;55.09;102073.81;5077385;28;20388;-76
2023/04/27 11:08:12;;;;;;;4.63;3.67;;;;;;;10.55;52.74;102070.16;5074584;28;20175;-76
2023/04/27 11:10:43;;;;;;;5.03;3.60;;;;;;;10.60;54.21;102070.06;5077246;28;20099;-76
2023/04/27 11:13:11;;;;;;;5.78;4.00;;;;;;;10.62;55.49;102068.28;5073383;28;20044;-76
2023/04/27 11:15:53;;;;;;;4.78;3.63;;;;;;;10.64;55.59;102064.75;5079028;28;20039;-76
2023/04/27 11:18:20;;;;;;;5.15;3.63;;;;;;;10.68;56.42;102068.16;5078857;28;20193;-76
2023/04/27 11:20:48;;;;;;;6.68;3.92;;;;;;;10.70;56.26;102054.13;5074675;28;20036;-76
2023/04/27 11:23:28;;;;;;;5.25;3.45;;;;;;;10.78;55.86;102060.94;5085125;28;20047;-76
2023/04/27 11:25:54;;;;;;;3.58;3.28;;;;;;;10.84;54.82;102059.06;5076809;28;20327;-76
2023/04/27 11:28:21;;;;;;;3.60;3.30;;;;;;;10.91;55.94;102055.41;5074070;28;20074;-76
2023/04/27 11:30:54;;;;;;;5.05;3.47;;;;;;;10.96;54.08;102052.66;5075782;28;20552;-76
2023/04/27 11:33:21;;;;;;;6.35;3.60;;;;;;;11.03;53.24;102048.16;5091227;28;20062;-76
2023/04/27 11:35:46;;;;;;;4.00;3.70;;;;;;;11.08;51.65;102047.16;5079367;28;20055;-77